Time,TemperatureF,DewpointF,PressureIn,WindDirection,WindDirectionDegrees,WindSpeedMPH,WindSpeedGustMPH,Humidity,HourlyPrecipIn,Conditions,Clouds,dailyrainin,SoftwareType,DateUTC
2013-03-07 00:01:00,7.0,7.0,-100.00,East,90,3.0,3.0,99,-99.99,,,-99.99,,2013-03-07 06:01:00,
2013-03-07 00:32:00,8.0,8.0,-100.00,SSE,165,0.0,0.0,99,-99.99,,,-99.99,,2013-03-07 06:32:00,
2013-03-07 00:42:00,8.0,8.0,-100.00,SSE,165,0.0,0.0,99,-99.99,,,-99.99,,2013-03-07 06:42:00,
2013-03-07 00:52:00,8.0,8.0,-100.00,SSE,165,0.0,0.0,99,-99.99,,,-99.99,,2013-03-07 06:52:00,
2013-03-07 01:01:00,8.0,8.0,-100.00,SSE,165,0.0,0.0,99,-99.99,,,-99.99,,2013-03-07 07:01:00,
2013-03-07 01:32:00,2.0,2.0,-100.00,East,80,0.0,0.0,99,-99.99,,,-99.99,,2013-03-07 07:32:00,
2013-03-07 01:43:00,2.0,2.0,-100.00,East,80,0.0,0.0,99,-99.99,,,-99.99,,2013-03-07 07:43:00,
2013-03-07 01:53:00,2.0,2.0,-100.00,East,80,0.0,0.0,99,-99.99,,,-99.99,,2013-03-07 07:53:00,
2013-03-07 02:02:00,2.0,2.0,-100.00,East,80,0.0,0.0,99,-99.99,,,-99.99,,2013-03-07 08:02:00,
2013-03-07 02:10:00,-1.0,-1.0,-100.00,South,170,1.0,2.0,99,-99.99,,,-99.99,,2013-03-07 08:10:00,
2013-03-07 02:34:00,-1.0,-1.0,-100.00,South,170,1.0,2.0,99,-99.99,,,-99.99,,2013-03-07 08:34:00,
2013-03-07 02:45:00,-1.0,-1.0,-100.00,South,170,1.0,2.0,99,-99.99,,,-99.99,,2013-03-07 08:45:00,
2013-03-07 02:54:00,-1.0,-1.0,-100.00,South,170,1.0,2.0,99,-99.99,,,-99.99,,2013-03-07 08:54:00,
2013-03-07 03:03:00,-1.0,-1.0,-100.00,South,170,1.0,2.0,99,-99.99,,,-99.99,,2013-03-07 09:03:00,
2013-03-07 03:33:00,1.0,1.0,-100.00,ESE,105,0.0,0.0,99,-99.99,,,-99.99,,2013-03-07 09:33:00,
2013-03-07 03:43:00,1.0,1.0,-100.00,ESE,105,0.0,0.0,99,-99.99,,,-99.99,,2013-03-07 09:43:00,
2013-03-07 03:53:00,1.0,1.0,-100.00,ESE,105,0.0,0.0,99,-99.99,,,-99.99,,2013-03-07 09:53:00,
2013-03-07 04:03:00,1.0,1.0,-100.00,ESE,105,0.0,0.0,99,-99.99,,,-99.99,,2013-03-07 10:03:00,
2013-03-07 04:33:00,4.0,4.0,-100.00,ESE,115,3.0,3.0,99,-99.99,,,-99.99,,2013-03-07 10:33:00,
2013-03-07 04:43:00,4.0,4.0,-100.00,ESE,115,3.0,3.0,99,-99.99,,,-99.99,,2013-03-07 10:43:00,
2013-03-07 04:53:00,4.0,4.0,-100.00,ESE,115,3.0,3.0,99,-99.99,,,-99.99,,2013-03-07 10:53:00,
2013-03-07 05:03:00,4.0,4.0,-100.00,ESE,115,3.0,3.0,99,-99.99,,,-99.99,,2013-03-07 11:03:00,
2013-03-07 05:34:00,2.0,2.0,-100.00,SSE,155,2.0,2.0,99,-99.99,,,-99.99,,2013-03-07 11:34:00,
2013-03-07 05:44:00,2.0,2.0,-100.00,SSE,155,2.0,2.0,99,-99.99,,,-99.99,,2013-03-07 11:44:00,
2013-03-07 05:54:00,2.0,2.0,-100.00,SSE,155,2.0,2.0,99,-99.99,,,-99.99,,2013-03-07 11:54:00,
2013-03-07 06:03:00,2.0,2.0,-100.00,SSE,155,2.0,2.0,99,-99.99,,,-99.99,,2013-03-07 12:03:00,
2013-03-07 06:34:00,1.0,1.0,-100.00,ESE,105,2.0,2.0,99,-99.99,,,-99.99,,2013-03-07 12:34:00,
2013-03-07 06:43:00,1.0,1.0,-100.00,ESE,105,2.0,2.0,99,-99.99,,,-99.99,,2013-03-07 12:43:00,
2013-03-07 06:53:00,1.0,1.0,-100.00,ESE,105,2.0,2.0,99,-99.99,,,-99.99,,2013-03-07 12:53:00,
2013-03-07 07:02:00,1.0,1.0,-100.00,ESE,105,2.0,2.0,99,-99.99,,,-99.99,,2013-03-07 13:02:00,
2013-03-07 07:10:00,3.0,2.0,-100.00,East,85,1.0,1.0,99,-99.99,,,-99.99,,2013-03-07 13:10:00,
2013-03-07 07:33:00,3.0,2.0,-100.00,East,85,1.0,1.0,99,-99.99,,,-99.99,,2013-03-07 13:33:00,
2013-03-07 07:42:00,3.0,2.0,-100.00,East,85,1.0,1.0,99,-99.99,,,-99.99,,2013-03-07 13:42:00,
2013-03-07 07:53:00,3.0,2.0,-100.00,East,85,1.0,1.0,99,-99.99,,,-99.99,,2013-03-07 13:53:00,
2013-03-07 08:02:00,3.0,2.0,-100.00,East,85,1.0,1.0,99,-99.99,,,-99.99,,2013-03-07 14:02:00,
2013-03-07 08:10:00,6.0,5.0,-100.00,SSE,155,1.0,1.0,99,-99.99,,,-99.99,,2013-03-07 14:10:00,
2013-03-07 08:33:00,6.0,5.0,-100.00,SSE,155,1.0,1.0,99,-99.99,,,-99.99,,2013-03-07 14:33:00,
2013-03-07 08:43:00,6.0,5.0,-100.00,SSE,155,1.0,1.0,99,-99.99,,,-99.99,,2013-03-07 14:43:00,
2013-03-07 08:54:00,6.0,5.0,-100.00,SSE,155,1.0,1.0,99,-99.99,,,-99.99,,2013-03-07 14:54:00,
2013-03-07 09:03:00,6.0,5.0,-100.00,SSE,155,1.0,1.0,99,-99.99,,,-99.99,,2013-03-07 15:03:00,
2013-03-07 09:10:00,8.0,8.0,-100.00,SW,230,2.0,2.0,99,-99.99,,,-99.99,,2013-03-07 15:10:00,
2013-03-07 09:33:00,8.0,8.0,-100.00,SW,230,2.0,2.0,99,-99.99,,,-99.99,,2013-03-07 15:33:00,
2013-03-07 09:43:00,8.0,8.0,-100.00,SW,230,2.0,2.0,99,-99.99,,,-99.99,,2013-03-07 15:43:00,
2013-03-07 09:53:00,8.0,8.0,-100.00,SW,230,2.0,2.0,99,-99.99,,,-99.99,,2013-03-07 15:53:00,
2013-03-07 10:02:00,8.0,8.0,-100.00,SW,230,2.0,2.0,99,-99.99,,,-99.99,,2013-03-07 16:02:00,
2013-03-07 10:11:00,13.0,13.0,-100.00,ESE,120,3.0,3.0,99,-99.99,,,-99.99,,2013-03-07 16:11:00,
2013-03-07 10:33:00,13.0,13.0,-100.00,ESE,120,3.0,3.0,99,-99.99,,,-99.99,,2013-03-07 16:33:00,
2013-03-07 10:43:00,13.0,13.0,-100.00,ESE,120,3.0,3.0,99,-99.99,,,-99.99,,2013-03-07 16:43:00,
2013-03-07 10:53:00,13.0,13.0,-100.00,ESE,120,3.0,3.0,99,-99.99,,,-99.99,,2013-03-07 16:53:00,
2013-03-07 11:02:00,13.0,13.0,-100.00,ESE,120,3.0,3.0,99,-99.99,,,-99.99,,2013-03-07 17:02:00,
2013-03-07 11:10:00,16.0,16.0,-100.00,ESE,120,5.0,6.0,99,-99.99,,,-99.99,,2013-03-07 17:10:00,
2013-03-07 11:33:00,16.0,16.0,-100.00,ESE,120,5.0,6.0,99,-99.99,,,-99.99,,2013-03-07 17:33:00,
2013-03-07 11:44:00,16.0,16.0,-100.00,ESE,120,5.0,6.0,99,-99.99,,,-99.99,,2013-03-07 17:44:00,
2013-03-07 11:54:00,16.0,16.0,-100.00,ESE,120,5.0,6.0,99,-99.99,,,-99.99,,2013-03-07 17:54:00,
2013-03-07 12:03:00,16.0,16.0,-100.00,ESE,120,5.0,6.0,99,-99.99,,,-99.99,,2013-03-07 18:03:00,
2013-03-07 12:32:00,20.0,18.0,-100.00,SSE,155,12.0,14.0,93,-99.99,,,-99.99,,2013-03-07 18:32:00,
2013-03-07 12:42:00,20.0,18.0,-100.00,SSE,155,12.0,14.0,93,-99.99,,,-99.99,,2013-03-07 18:42:00,
2013-03-07 12:53:00,20.0,18.0,-100.00,SSE,155,12.0,14.0,93,-99.99,,,-99.99,,2013-03-07 18:53:00,
2013-03-07 13:10:00,21.0,20.0,-100.00,SE,145,14.0,18.0,95,-99.99,,,-99.99,,2013-03-07 19:10:00,
2013-03-07 13:35:00,21.0,20.0,-100.00,SE,145,14.0,18.0,95,-99.99,,,-99.99,,2013-03-07 19:35:00,
2013-03-07 13:44:00,21.0,20.0,-100.00,SE,145,14.0,18.0,95,-99.99,,,-99.99,,2013-03-07 19:44:00,
2013-03-07 13:53:00,21.0,20.0,-100.00,SE,145,14.0,18.0,95,-99.99,,,-99.99,,2013-03-07 19:53:00,
2013-03-07 14:02:00,21.0,20.0,-100.00,SE,145,14.0,18.0,95,-99.99,,,-99.99,,2013-03-07 20:02:00,
2013-03-07 14:10:00,24.0,23.0,-100.00,SE,140,15.0,19.0,94,-99.99,,,-99.99,,2013-03-07 20:10:00,
2013-03-07 14:34:00,24.0,23.0,-100.00,SE,140,15.0,19.0,94,-99.99,,,-99.99,,2013-03-07 20:34:00,
2013-03-07 14:43:00,24.0,23.0,-100.00,SE,140,15.0,19.0,94,-99.99,,,-99.99,,2013-03-07 20:43:00,
2013-03-07 14:54:00,24.0,23.0,-100.00,SE,140,15.0,19.0,94,-99.99,,,-99.99,,2013-03-07 20:54:00,
2013-03-07 15:02:00,24.0,23.0,-100.00,SE,140,15.0,19.0,94,-99.99,,,-99.99,,2013-03-07 21:02:00,
2013-03-07 15:10:00,26.0,23.0,-100.00,SE,135,16.0,19.0,89,-99.99,,,-99.99,,2013-03-07 21:10:00,
2013-03-07 15:33:00,26.0,23.0,-100.00,SE,135,16.0,19.0,89,-99.99,,,-99.99,,2013-03-07 21:33:00,
2013-03-07 15:43:00,26.0,23.0,-100.00,SE,135,16.0,19.0,89,-99.99,,,-99.99,,2013-03-07 21:43:00,
2013-03-07 15:53:00,26.0,23.0,-100.00,SE,135,16.0,19.0,89,-99.99,,,-99.99,,2013-03-07 21:53:00,
2013-03-07 16:02:00,26.0,23.0,-100.00,SE,135,16.0,19.0,89,-99.99,,,-99.99,,2013-03-07 22:02:00,
2013-03-07 16:10:00,27.0,24.0,-100.00,SE,130,7.0,9.0,88,-99.99,,,-99.99,,2013-03-07 22:10:00,
2013-03-07 16:33:00,27.0,24.0,-100.00,SE,130,7.0,9.0,88,-99.99,,,-99.99,,2013-03-07 22:33:00,
2013-03-07 16:43:00,27.0,24.0,-100.00,SE,130,7.0,9.0,88,-99.99,,,-99.99,,2013-03-07 22:43:00,
2013-03-07 16:54:00,27.0,24.0,-100.00,SE,130,7.0,9.0,88,-99.99,,,-99.99,,2013-03-07 22:54:00,
2013-03-07 17:02:00,27.0,24.0,-100.00,SE,130,7.0,9.0,88,-99.99,,,-99.99,,2013-03-07 23:02:00,
2013-03-07 17:10:00,26.0,23.0,-100.00,SE,140,7.0,8.0,88,-99.99,,,-99.99,,2013-03-07 23:10:00,
2013-03-07 17:34:00,26.0,23.0,-100.00,SE,140,7.0,8.0,88,-99.99,,,-99.99,,2013-03-07 23:34:00,
2013-03-07 17:44:00,26.0,23.0,-100.00,SE,140,7.0,8.0,88,-99.99,,,-99.99,,2013-03-07 23:44:00,
2013-03-07 17:54:00,26.0,23.0,-100.00,SE,140,7.0,8.0,88,-99.99,,,-99.99,,2013-03-07 23:54:00,
2013-03-07 18:03:00,26.0,23.0,-100.00,SE,140,7.0,8.0,88,-99.99,,,-99.99,,2013-03-08 00:03:00,
2013-03-07 18:10:00,21.0,20.0,-100.00,SSE,165,6.0,6.0,94,-99.99,,,-99.99,,2013-03-08 00:10:00,
2013-03-07 18:34:00,21.0,20.0,-100.00,SSE,165,6.0,6.0,94,-99.99,,,-99.99,,2013-03-08 00:34:00,
2013-03-07 18:44:00,21.0,20.0,-100.00,SSE,165,6.0,6.0,94,-99.99,,,-99.99,,2013-03-08 00:44:00,
2013-03-07 18:54:00,21.0,20.0,-100.00,SSE,165,6.0,6.0,94,-99.99,,,-99.99,,2013-03-08 00:54:00,
2013-03-07 19:02:00,21.0,20.0,-100.00,SSE,165,6.0,6.0,94,-99.99,,,-99.99,,2013-03-08 01:02:00,
2013-03-07 19:11:00,21.0,20.0,-100.00,South,175,7.0,7.0,95,-99.99,,,-99.99,,2013-03-08 01:11:00,
2013-03-07 19:33:00,21.0,20.0,-100.00,South,175,7.0,7.0,95,-99.99,,,-99.99,,2013-03-08 01:33:00,
2013-03-07 19:42:00,21.0,20.0,-100.00,South,175,7.0,7.0,95,-99.99,,,-99.99,,2013-03-08 01:42:00,
2013-03-07 19:52:00,21.0,20.0,-100.00,South,175,7.0,7.0,95,-99.99,,,-99.99,,2013-03-08 01:52:00,
2013-03-07 20:01:00,21.0,20.0,-100.00,South,175,7.0,7.0,95,-99.99,,,-99.99,,2013-03-08 02:01:00,
2013-03-07 20:32:00,25.0,23.0,-100.00,South,175,12.0,13.0,93,-99.99,,,-99.99,,2013-03-08 02:32:00,
2013-03-07 20:42:00,25.0,23.0,-100.00,South,175,12.0,13.0,93,-99.99,,,-99.99,,2013-03-08 02:42:00,
2013-03-07 20:53:00,25.0,23.0,-100.00,South,175,12.0,13.0,93,-99.99,,,-99.99,,2013-03-08 02:53:00,
2013-03-07 21:02:00,25.0,23.0,-100.00,South,175,12.0,13.0,93,-99.99,,,-99.99,,2013-03-08 03:02:00,
2013-03-07 21:10:00,25.0,23.0,-100.00,South,180,13.0,14.0,93,-99.99,,,-99.99,,2013-03-08 03:10:00,
2013-03-07 21:33:00,25.0,23.0,-100.00,South,180,13.0,14.0,93,-99.99,,,-99.99,,2013-03-08 03:33:00,
2013-03-07 21:43:00,25.0,23.0,-100.00,South,180,13.0,14.0,93,-99.99,,,-99.99,,2013-03-08 03:43:00,
2013-03-07 21:53:00,25.0,23.0,-100.00,South,180,13.0,14.0,93,-99.99,,,-99.99,,2013-03-08 03:53:00,
2013-03-07 22:01:00,25.0,23.0,-100.00,South,180,13.0,14.0,93,-99.99,,,-99.99,,2013-03-08 04:01:00,
2013-03-07 22:32:00,25.0,23.0,-100.00,South,185,12.0,14.0,93,-99.99,,,-99.99,,2013-03-08 04:32:00,
2013-03-07 22:42:00,25.0,23.0,-100.00,South,185,12.0,14.0,93,-99.99,,,-99.99,,2013-03-08 04:42:00,
2013-03-07 22:52:00,25.0,23.0,-100.00,South,185,12.0,14.0,93,-99.99,,,-99.99,,2013-03-08 04:52:00,
2013-03-07 23:02:00,25.0,23.0,-100.00,South,185,12.0,14.0,93,-99.99,,,-99.99,,2013-03-08 05:02:00,
2013-03-07 23:33:00,25.0,23.0,-100.00,South,185,14.0,15.0,94,-99.99,,,-99.99,,2013-03-08 05:33:00,
2013-03-07 23:42:00,25.0,23.0,-100.00,South,185,14.0,15.0,94,-99.99,,,-99.99,,2013-03-08 05:42:00,
2013-03-07 23:52:00,25.0,23.0,-100.00,South,185,14.0,15.0,94,-99.99,,,-99.99,,2013-03-08 05:52:00,